Decoded Metar for KCUT (CUSTER in SD, USA) (IATA:CUT) | Meteo·Mobile Aviation Weather
aviador You're here:

KCUT Decoded Metar

CUSTER in SD, USA
Report Time2018-09-26 04:53:00
UTC Time2018-09-26 05:00:58
Flight Rules vfr VFR
Wind200° at 05 kt
W.Decomp.*RWY 26: 1.6 kt HW 4.7 kt LCW
W.Rank200° ranks 31
Current wind is below 200° avg. (5.3)
Visibility9999 m
Phenomena:N/A
Clouds:N/A
Expected CloudBase > 1,600 ft AGL from Temp-Dew spread
CeilingNone
Temp00°C (ISA -4)
Dew Point-4°C (75% RH)
AAT-4.3°C
QNH1026 hPa
Density Alt4,843 ft
Elevation5,659 ft
Report Wrong Elevation
Raw Report
METAR KCUT 260453Z AUTO 20005KT 10SM CLR 00/M04 A3029 RMK AO2 SLP260
T00001039=

Extra information for KCUT:More info

Metar Taf Metar & Taf Last 4 Metars F.Rules Stats Wind Profile Meteogram Temp Stats Airport Information Weather charts Add Link Nearby VenuesMetar ALERT Operation Metar Decoded Social comments

AIRNAV info for KCUT